x

9410230 - La Jolla, Ca (ljac1) Weather Station

10:30 - Tue 30th Aug 2016 All times are PDT. -7 hours from GMT.

  • Wind
    6mph, 7mph gusts
  • Sea Temp 72°f
  • Aire Temp 69°f
  • Sea Pressure 1010.5mb
  • 9410230 - La Jolla, Ca
  • 9410230 - La Jolla, Ca

More Historic Weather Station data

Upgrade to MSW Pro to gain access to the past 30 days of data for over 8000 Wavebouys and Weather Stations around the globe.

Join Pro

Comparision Forecast

View Surf forecast
   
mar 08/30 10:30 6 7 mph 1010.5mb 72f 69f
10:24 6 7 mph 1010.5mb 72f 69f
10:18 6 8 mph 1010.5mb 72f 69f
10:12 6 9 mph 1010.4mb 72f 69f
10:06 6
mph
1010.5mb 72f 69f
10:00 5 6 mph 1010.5mb 72f 69f
9:54 6 7 mph 1010.4mb 72f 69f
9:48 6 7 mph 1010.4mb 72f 69f
9:42 2 6 mph 1010.3mb 72f 69f
9:36 5 6 mph 1010.2mb 72f 70f
9:30 3
mph
1010.3mb 72f 70f
9:24 2 5 mph 1010.2mb 72f 69f
9:18 5 7 mph 1010.1mb 72f 69f
9:12 6
mph
1010.1mb 72f 69f
9:06 5 6 mph 1010.1mb 72f 70f
9:00 5 6 mph 1010mb 72f 70f
8:54 5 6 mph 1010mb 72f 70f
8:48 5
mph
1009.9mb 72f 70f
8:42 5 6 mph 1009.9mb 72f 70f
8:36 5 6 mph 1009.8mb 72f 70f
8:30 5 7 mph 1009.8mb 72f 70f
8:24 6 7 mph 1009.7mb 72f 70f
8:18 7 8 mph 1009.7mb 72f 70f
8:12 7 8 mph 1009.6mb 72f 70f
8:06 7 8 mph 1009.6mb 72f 70f
8:00 7 8 mph 1009.6mb 72f 70f
7:54 7 8 mph 1009.6mb 72f 70f
7:48 8 9 mph 1009.6mb 72f 70f
7:42 7 8 mph 1009.6mb 72f 70f
7:36 7 10 mph 1009.5mb 72f 70f
7:30 8 10 mph - 72f 70f
7:24 9 10 mph - 72f 70f
7:18 8 11 mph 1009.3mb 72f 70f
7:12 10 11 mph 1009.2mb 72f 70f
7:06 10 11 mph 1009.2mb 72f 70f
7:00  -  mph 1009.3mb 72f 70f
6:54  -  mph 1009.3mb 72f 70f
6:48 11 13 mph - 72f 70f
6:42 10 13 mph - 72f 70f
6:36 11 13 mph - 72f 70f
6:30 11 14 mph - 72f 70f
6:24 11 14 mph - 72f 71f
6:18  -  mph 1009.4mb 73f 71f
6:12  -  mph 1009.3mb 73f 71f
6:06  -  mph 1009.3mb 73f 71f
6:00  -  mph 1009.3mb 73f 71f
5:54  -  mph 1009.4mb 73f 71f
5:48  -  mph - 73f 71f
5:42  -  mph - 73f 71f
5:36  -  mph - 73f 71f
5:30 11 14 mph - 73f 71f
5:24 11 14 mph - 73f 71f
5:18  -  mph 1009.5mb 73f 71f
5:12  -  mph 1009.5mb 72f 71f
5:06  -  mph 1009.5mb 73f 72f
5:00  -  mph 1009.5mb 73f 72f
4:54  -  mph 1009.5mb 73f 72f
4:48  -  mph 1009.6mb 73f -
4:42  -  mph 1009.5mb 73f -
4:36  -  mph 1009.5mb 73f -
4:30 11 14 mph - 72f 72f
4:24 13 15 mph - 72f 71f
4:18  -  mph 1009.6mb 72f 71f
4:12  -  mph 1009.6mb 72f 71f
4:06  -  mph 1009.6mb 72f 71f
4:00  -  mph 1009.7mb 71f 71f
3:54  -  mph 1009.7mb 71f 71f
3:48  -  mph 1009.6mb 71f -
3:42  -  mph 1009.6mb 71f -
3:36  -  mph 1009.6mb 71f -
3:30 14 15 mph - 71f 70f
3:24 14 15 mph - 71f 70f
3:18  -  mph 1009.8mb 71f 70f
3:12  -  mph 1009.8mb 72f 70f
3:06  -  mph 1010mb 71f 70f
3:00 9 10 mph 1010.1mb 71f 70f
2:54 8 9 mph 1010.1mb 71f 70f
2:48 9 10 mph 1010.2mb 71f 70f
2:42 7 8 mph 1010.3mb 71f 70f
2:36 7 9 mph 1010.3mb 71f 70f
2:30 8 9 mph 1010.3mb 70f 70f
2:24 8 9 mph 1010.4mb 70f 70f
2:18 8 9 mph 1010.5mb 70f 70f
2:12 7 8 mph 1010.7mb 70f 70f
2:06 7 9 mph 1010.7mb 70f 70f
2:00 8 10 mph 1010.7mb 70f 70f
1:54 7 9 mph 1010.7mb 70f 70f
1:48 7 9 mph 1010.7mb 70f 70f
1:42 8 9 mph 1010.7mb 71f 69f
1:36 7 9 mph 1010.8mb 71f 70f
1:30 8 9 mph 1010.8mb 70f 70f
1:24 7 9 mph 1010.8mb 69f 70f
1:18 9 10 mph 1010.9mb 69f 69f
1:12 8 9 mph 1010.9mb 69f 70f
1:06 8
mph
1010.8mb 68f 70f
1:00 7 8 mph 1010.9mb 67f 70f
12:54 6 7 mph 1011mb 66f 70f
12:48 6 7 mph 1011mb 67f 70f
12:42 5 6 mph 1011mb 66f 70f
12:36 5 6 mph 1011mb 67f 70f
12:30 3 6 mph 1011.1mb 67f 70f
12:24 3 5 mph 1011.2mb 67f 70f
12:18 3 6 mph 1011.2mb 67f 71f
12:12 3 6 mph 1011.2mb 67f 71f
12:06 3 6 mph 1011.2mb 67f 71f
12:00 2 3 mph 1011.3mb 68f 71f
11:54 3 5 mph 1011.4mb 68f 71f
11:48 2 6 mph 1011.4mb 69f 71f
11:42 5 6 mph 1011.5mb 69f 71f
11:36 2 6 mph 1011.6mb 70f 72f
11:30 5 6 mph 1011.6mb 70f 70f
11:24 5 6 mph 1011.6mb 70f 71f
11:18 3 6 mph 1011.7mb 70f 71f
11:12 3 5 mph 1011.7mb 70f 71f
11:06 3 6 mph 1011.7mb 70f 71f
11:00 5 6 mph 1011.7mb 70f 70f
10:54 5 6 mph 1011.7mb 70f 70f
10:48 5 6 mph 1011.8mb 70f 70f
10:42 5 6 mph 1011.7mb 70f 70f
10:36 3 6 mph 1011.7mb 70f 70f
10:30 3 5 mph 1011.7mb 70f 70f
10:24 3 5 mph 1011.8mb 70f 70f
10:18 3 5 mph 1011.7mb 70f 70f
10:12 3 5 mph 1011.7mb 70f 70f
10:06 5
mph
1011.8mb 70f 70f
10:00 5 6 mph 1011.7mb 70f 70f
9:54 3 5 mph 1011.7mb 70f 71f
9:48 2 5 mph 1011.7mb 70f 71f
9:42 3
mph
1011.7mb 70f 71f
9:36 3
mph
1011.6mb 70f 71f
9:30 3
mph
1011.6mb 70f 71f
9:24 3
mph
1011.6mb 70f 71f
9:18 3
mph
1011.6mb 70f 71f
9:12 2 5 mph 1011.5mb 70f 71f
9:06 3
mph
1011.5mb 70f 70f
9:00 3
mph
1011.5mb 70f 71f
8:54 2 3 mph 1011.5mb 70f 70f
8:48 3 5 mph 1011.5mb 70f 70f
8:42 2 5 mph 1011.5mb 70f 70f
8:36 3 5 mph 1011.5mb 70f 69f
8:30 3 5 mph 1011.5mb 70f 69f
8:24 3 5 mph 1011.5mb 70f 69f
8:18 3 5 mph 1011.5mb 70f 69f
8:12 3 5 mph 1011.5mb 69f 69f
8:06 3 5 mph 1011.4mb 68f 69f
8:00 3 5 mph 1011.5mb 68f 69f
7:54 5
mph
1011.4mb 68f 69f
7:48 2 3 mph 1011.4mb 68f 69f
7:42 2 3 mph 1011.4mb 68f 69f
7:36 2 3 mph 1011.4mb 69f 69f
7:30 2 3 mph 1011.4mb 69f 68f
7:24 2 5 mph 1011.3mb 69f 68f
7:18 2 5 mph 1011.4mb 70f 68f
7:12 2 3 mph 1011.4mb 70f 68f
7:06 3 6 mph 1011.4mb 70f 68f
7:00 6 8 mph 1011.4mb 70f 68f
6:54 7 8 mph 1011.4mb 70f 68f
6:48 5
mph
1011.3mb 70f 68f
6:42 2 5 mph 1011.3mb 70f 68f
6:36 2 3 mph 1011.3mb 69f 68f
6:30  -  2 mph 1011.4mb 69f 68f
6:24 2 3 mph 1011.4mb 68f 68f
6:18 2 5 mph 1011.4mb 69f 68f
6:12 3 5 mph 1011.5mb 69f 68f
6:06 3 5 mph 1011.4mb 69f 68f
6:00 2 6 mph 1011.3mb 69f 67f
5:54 5 6 mph 1011.4mb 69f 68f
5:48 3 5 mph 1011.4mb 69f 67f
5:42 3 5 mph 1011.4mb 69f 67f
5:36  -  1 mph 1011.4mb 69f 68f
5:30  -  1 mph 1011.4mb 69f 68f
5:24 2 5 mph 1011.4mb 69f 68f
5:18 2 5 mph 1011.5mb 69f 68f
5:12 3 5 mph 1011.5mb 69f 68f
5:06 2 5 mph 1011.5mb 69f 68f
5:00 5 6 mph 1011.5mb 69f 68f
4:54 3 6 mph 1011.5mb 69f 68f
4:48 5 6 mph 1011.5mb 69f 68f
4:42 5 8 mph 1011.5mb 69f 68f
4:36 5
mph
1011.5mb 69f 68f
4:30 6 8 mph 1011.5mb 69f 68f
4:24 5 6 mph 1011.5mb 69f 68f
4:18 3 5 mph 1011.5mb 70f 68f
4:12 3 5 mph 1011.6mb 70f 68f
4:06 3 5 mph 1011.6mb 70f 68f
4:00 5 7 mph 1011.6mb 70f 68f
3:54 6 9 mph 1011.6mb 70f 68f
3:48 7
mph
1011.6mb 70f 68f
3:42 3 5 mph 1011.7mb 70f 68f
3:36 6
mph
1011.6mb 70f 68f
3:30 6 9 mph 1011.6mb 70f 68f
3:24 7 9 mph 1011.7mb 70f 68f
3:18 6 9 mph 1011.7mb 70f 68f
3:12 7 9 mph 1011.7mb 70f 68f
3:06 5 8 mph 1011.7mb 70f 68f
3:00 7 9 mph 1011.8mb 70f 69f
2:54 7 9 mph 1011.8mb 70f 69f
2:48 5 7 mph 1011.8mb 70f 69f
2:42 6 7 mph 1011.9mb 70f 69f
2:36 6 10 mph 1011.9mb 70f 69f
2:30 7 9 mph 1012mb 69f 69f
2:24 7 8 mph 1012mb 69f 68f
2:18 7 9 mph 1012.1mb 69f 69f
2:12 7 9 mph 1012.1mb 69f 68f
2:06 7 9 mph 1012.1mb 69f 68f
2:00 8 9 mph 1012.1mb 69f 68f
1:54 6 7 mph 1012mb 69f 68f
1:48 6 7 mph 1012mb 68f 68f
1:42 5 6 mph 1012mb 68f 68f
1:36 5 6 mph 1012.1mb 68f 68f
1:30 5
mph
1012mb 69f 68f
1:24 5 6 mph 1012mb 68f 68f
1:18 6 7 mph 1012.1mb 69f 68f
1:12 5 7 mph 1012mb 69f 68f
1:06 6
mph
1012.1mb 69f 68f
1:00 6 7 mph 1012.1mb 68f 68f
12:54 5
mph
1012.2mb 68f 68f
12:48 5 6 mph 1012.3mb 68f 68f
12:42 7 10 mph 1012.3mb 67f 68f
12:36 7 8 mph 1012.2mb 67f 68f
12:30 6 8 mph 1012.2mb 67f 69f
12:24 6 7 mph 1012.2mb 67f 69f
12:18 3 6 mph 1012.2mb 67f 69f
12:12 3 7 mph 1012.1mb 68f 68f
12:06 2
mph
1012mb 68f 69f
12:00  -  2 mph 1012.1mb 68f 69f
lun 08/29 11:54 2 5 mph 1012mb 69f 69f
11:48 2
mph
1012.1mb 69f -
11:42 2
mph
1012mb 70f -
11:36 2
mph
1012.1mb 70f -
11:30  -  2 mph 1012.1mb 70f 69f
11:24 3
mph
1012.1mb 70f 69f
11:18  -  2 mph 1012.1mb 68f 69f
11:12  -  1 mph 1012.2mb 69f 69f
11:06  -  1 mph 1012.1mb 70f 69f
11:00  -  1 mph 1012.2mb 71f 69f
10:54  -  1 mph 1012.2mb 71f 69f
10:48  -  1 mph 1012.2mb 71f -
10:42  -  2 mph 1012.2mb 71f -
10:36 2 3 mph 1012.3mb 71f -
10:30 2
mph
1012.3mb 70f 69f
10:24  -  3 mph 1012.2mb 70f 69f
10:18 2
mph
1012.3mb 71f 69f
10:12 1 2 mph 1012.3mb 71f 69f
10:06 1 2 mph 1012.3mb 71f 69f
10:00 1 2 mph 1012.3mb 71f 69f
9:54  -  2 mph 1012.2mb 71f 69f
9:48  -  1 mph 1012.1mb 71f 69f
9:42  -  2 mph 1012.2mb 71f 69f
9:36 2 3 mph 1012.1mb 71f 69f
9:30 2 3 mph 1012mb 71f 69f
9:24 2 3 mph 1012mb 71f 69f
9:18  -  3 mph 1012.1mb 71f 69f
9:12 2 3 mph 1012.1mb 71f 69f
9:06 2 5 mph 1012.1mb 70f 69f
9:00 2 3 mph 1012.2mb 70f 69f
8:54 3 5 mph 1012.1mb 70f 69f
8:48 2 3 mph 1012.1mb 70f 69f
8:42 2 6 mph 1012mb 70f 69f
8:36 2 3 mph 1011.9mb 70f 69f
8:30 2 5 mph 1011.9mb 70f 69f
8:24 3 5 mph 1011.8mb 70f 69f
8:18 3 5 mph 1011.8mb 70f 69f
8:12 2 7 mph 1011.8mb 70f 70f
8:06 5 6 mph 1011.7mb 70f 69f
8:00 5 6 mph 1011.6mb 70f 70f
7:54 5 6 mph 1011.5mb 70f 70f
7:48 5 6 mph - 70f 70f
7:42 5
mph
- 70f 70f
7:36 5 6 mph - 70f 70f
7:30 3 5 mph - 70f 70f
7:24 5
mph
- 70f 70f
7:18 5
mph
1011.3mb 70f 70f
7:12 2 3 mph 1011.3mb 70f 70f
7:06 3 5 mph 1011.2mb 70f 70f
7:00  -  mph 1011.1mb 70f 70f
6:54  -  mph 1011.1mb 70f 70f
6:48 5
mph
- 70f 70f
6:42 3 5 mph - 69f 71f
6:36 5
mph
- 69f 71f
6:30 3
mph
- 69f 71f
6:24 3 5 mph - 69f 72f
6:18 3 6 mph - 69f 72f
6:12 5
mph
- 69f 72f
6:06 3 5 mph - 68f 73f
6:00 3 5 mph 1010.9mb 67f 72f
5:54 3 5 mph 1010.9mb 68f 73f
5:48 3 5 mph - 69f -
5:42 2 3 mph - 66f -
5:36 3
mph
- 64f -
5:30 2
mph
- 64f 74f
5:24 2
mph
- 63f 74f
5:18 1 2 mph 1011.2mb 63f 73f
5:12 1 3 mph 1011.2mb 63f 73f
5:06 2 3 mph 1011.2mb 63f 72f
5:00  -  mph 1011.3mb 63f 71f
4:54  -  mph 1011.3mb 63f 72f
4:48  -  mph 1011.3mb 63f -
4:42  -  mph 1011.4mb 63f -
4:36  -  mph 1011.4mb 63f -
4:30 5 6 mph 1011.3mb 63f 71f
4:24 5 7 mph 1011.5mb 64f 71f
4:18  -  mph 1011.5mb 64f 71f
4:12  -  mph 1011.6mb 64f 71f
4:06  -  mph 1011.6mb 64f 71f
4:00 6 7 mph - 64f 71f
3:54 7
mph
- 65f 71f
3:48 7 8 mph - 65f 70f
3:42 7 8 mph - 66f 71f
3:36 7 9 mph - 66f 71f
3:30 7 9 mph - 67f 70f
3:24 8 9 mph - 68f 70f
3:18 8 9 mph 1012.1mb 68f 70f
3:12 8 9 mph 1012.2mb 68f 70f
3:06 7 9 mph 1012.2mb 67f 70f
3:00  -  mph - 67f 70f
2:54  -  mph - 67f 70f
2:48 8 9 mph 1012.4mb 68f 70f
2:42 8 9 mph 1012.5mb 68f 70f
2:36 7 8 mph 1012.6mb 68f 70f
2:30 7 8 mph 1012.7mb 68f 70f
2:24 7 8 mph 1012.8mb 68f 70f
2:18 7 8 mph 1013mb 69f 70f
2:12 6 8 mph 1013.1mb 69f 71f
2:06 6 7 mph 1013.2mb 69f 71f
2:00 6 8 mph 1013.3mb 69f 70f
1:54 6 8 mph 1013.4mb 69f 70f
1:48 6 7 mph 1013.5mb 69f 70f
1:42 6 7 mph 1013.5mb 69f 69f
1:36 7 8 mph 1013.5mb 69f 70f
1:30 6
mph
1013.5mb 69f 69f
1:24 5 6 mph 1013.5mb 69f 69f
1:18 5 6 mph 1013.6mb 69f 69f
1:12 7
mph
1013.6mb 69f 69f
1:06 6
mph
1013.6mb 69f 69f
1:00 5 6 mph 1013.6mb 70f 69f
12:54 5 6 mph 1013.7mb 69f 68f
12:48 6 7 mph 1013.8mb 69f 68f
12:42 6 7 mph 1013.8mb 69f 68f
12:36 6 7 mph 1013.9mb 69f 69f
12:30 5 7 mph 1014mb 69f 69f
12:24 5 7 mph 1014mb 69f 69f
12:18 5 7 mph 1014mb 69f 69f
12:12 6 8 mph 1014mb 68f 69f
12:06 3 7 mph 1014.2mb 68f 69f
12:00 6 7 mph 1014.3mb 68f 69f
11:54 6 8 mph 1014.4mb 69f 68f
11:48 8 10 mph 1014.5mb 68f 68f
11:42 6 8 mph 1014.5mb 68f 68f
11:36 8 9 mph 1014.5mb 69f 68f
11:30 6 10 mph 1014.6mb 70f 68f
11:24 8 9 mph 1014.7mb 70f 68f
11:18 5 6 mph 1014.7mb 70f 69f
11:12 6 7 mph 1014.7mb 70f 68f
11:06 6 8 mph 1014.7mb 70f 68f
11:00 7
mph
1014.7mb 70f 68f
10:54 5 8 mph 1014.8mb 70f 69f
10:48 5 7 mph 1014.8mb 70f 68f
10:42 5 7 mph 1014.8mb 70f 68f
10:36 5 7 mph 1014.8mb 70f 68f
10:30 5 7 mph 1014.9mb 70f 68f
10:24 5 7 mph 1014.8mb 70f 68f
10:18 5 6 mph 1014.8mb 70f 68f
10:12 6 7 mph 1014.8mb 70f 68f
10:06 5 6 mph 1014.9mb 70f 68f
10:00 5 6 mph 1014.9mb 70f 68f
9:54 6 9 mph 1015mb 70f 68f
9:48 7 9 mph 1014.9mb 70f 68f
9:42 6 7 mph 1015mb 70f 68f
9:36 6 7 mph 1015mb 70f 68f
9:30 5 6 mph 1015mb 70f 68f
9:24 3 5 mph 1015mb 70f 68f
9:18 5
mph
1015mb 70f 68f
9:12 2 3 mph 1015mb 70f 68f
9:06 2 5 mph 1015.1mb 70f 68f
9:00  -  1 mph 1015.1mb 69f 68f
8:54 1 3 mph 1015.1mb 69f 68f
8:48 3 6 mph 1015.1mb 69f 67f
8:42 5 6 mph 1015mb 69f 67f
8:36 5 6 mph 1015mb 69f 68f
8:30 2 3 mph 1015mb 69f 68f
8:24 1 3 mph 1014.9mb 69f 68f
8:18 2 3 mph 1014.9mb 69f 68f
8:12  -  3 mph 1014.9mb 69f 68f
8:06 3 5 mph 1014.9mb 69f 67f
8:00 2 3 mph 1014.9mb 69f 68f
7:54 2 3 mph 1014.8mb 68f 68f
7:48  -  5 mph 1014.8mb 69f 68f
7:42 3 5 mph 1014.7mb 69f 67f
7:36 3 5 mph 1014.8mb 69f 67f
7:30 1 5 mph 1014.8mb 69f 67f
7:24 2 5 mph 1014.7mb 69f 67f
7:18 2 5 mph 1014.7mb 70f 67f
7:12 1 5 mph 1014.6mb 70f 68f
7:06  -  2 mph 1014.4mb 69f 67f
7:00  -  2 mph 1014.5mb 69f 67f
6:54 1 2 mph 1014.4mb 69f 67f
6:48 1 2 mph 1014.4mb 69f 67f
6:42  -  1 mph 1014.3mb 69f 67f
6:36  -  2 mph 1014.3mb 68f 67f
6:30 2 5 mph 1014.2mb 67f 67f
6:24 3 6 mph 1014.2mb 66f 67f
6:18 2 3 mph 1014.2mb 65f 67f
6:12 1 2 mph 1014.2mb 65f 67f
6:06 2 3 mph 1014.2mb 66f 67f
6:00 1 2 mph 1014.2mb 66f 67f
5:54 1 2 mph 1014.2mb 66f 67f
5:48 2 3 mph 1014.2mb 65f 68f
5:42 2 3 mph 1014.3mb 65f 68f
5:36 2
mph
1014.3mb 65f 68f
5:30 1 2 mph 1014.3mb 67f 68f
5:24 1 2 mph 1014.3mb 67f 68f
5:18 2 3 mph 1014.3mb 67f 68f
5:12  -  2 mph 1014.3mb 67f 68f
5:06 1 2 mph 1014.2mb 67f 68f
5:00 2 3 mph 1014.2mb 67f 68f
4:54  -  2 mph 1014.3mb 67f 68f
4:48  -  2 mph 1014.3mb 67f 68f
4:42 1 2 mph 1014.2mb 67f 68f
4:36 2 3 mph 1014.2mb 67f 68f
4:30 1 2 mph 1014.3mb 67f 68f
4:24 1 2 mph 1014.3mb 67f 68f
4:18 2
mph
1014.4mb 65f 68f
4:12  -  2 mph 1014.4mb 64f 68f
4:06 1 2 mph 1014.4mb 64f 68f
4:00 1 2 mph 1014.4mb 65f 68f
3:54  -  3 mph 1014.4mb 65f 68f
3:48 1 3 mph 1014.6mb 66f 68f
3:42  -  1 mph 1014.6mb 67f 68f
3:36 2 5 mph 1014.6mb 68f 68f
3:30 3
mph
1014.7mb 68f 68f
3:24 3 5 mph 1014.7mb 68f 68f
3:18 3 6 mph 1014.8mb 68f 68f
3:12 1 2 mph 1014.9mb 68f 69f
3:06 2 3 mph 1014.9mb 68f 69f
3:00 5 6 mph 1014.9mb 68f 69f
2:54 2 3 mph 1014.8mb 68f 69f
2:48  -  3 mph 1014.8mb 68f 69f
2:42 2 3 mph 1014.8mb 68f 69f
2:36  -  1 mph 1014.8mb 68f 69f
2:30  -  2 mph 1014.9mb 68f 69f
2:24 2 3 mph 1014.8mb 68f 69f
2:18 2 3 mph 1014.8mb 68f 68f
2:12 3 5 mph 1014.9mb 68f 68f
2:06 3 5 mph 1014.9mb 68f 68f
2:00 2 3 mph 1015mb 69f 68f
1:54  -  1 mph 1015mb 68f 69f
1:48  -  1 mph 1015mb 68f 68f
1:42  -  1 mph 1015mb 69f 68f
1:36  -  1 mph 1015.1mb 69f 68f
1:30  -  1 mph 1015.2mb 69f 68f
1:24 1 2 mph 1015.2mb 69f 68f
1:18  -  1 mph 1015.2mb 69f 68f
1:12  -  mph 1015.2mb 69f 68f
1:06  -  1 mph 1015.3mb 69f 68f
1:00  -  2 mph 1015.3mb 70f 68f
12:54 1
mph
1015.3mb 70f 68f
12:48  -  1 mph 1015.4mb 70f 68f
12:42  -  1 mph 1015.4mb 70f 68f
12:36  -  1 mph 1015.5mb 70f 68f
12:30 1
mph
1015.6mb 70f 68f
12:24  -  1 mph 1015.6mb 69f 68f
12:18  -  1 mph 1015.6mb 70f 68f
12:12 1 2 mph 1015.6mb 70f 68f
12:06 2
mph
1015.6mb 70f 68f
12:00 2 3 mph 1015.6mb 69f 68f
dom 08/28 11:54 3
mph
1015.6mb 69f 68f
11:48 2 3 mph 1015.6mb 69f 68f
11:42 3
mph
1015.6mb 69f 68f
11:36  -  mph 1015.6mb 69f 68f
11:30  -  mph 1015.6mb 69f 68f
11:24  -  1 mph 1015.6mb 68f 68f
11:18  -  mph 1015.6mb 68f 68f
11:12  -  1 mph 1015.6mb 68f 68f
11:06 1
mph
1015.7mb 68f 68f
11:00  -  1 mph 1015.6mb 68f 68f
10:54 2
mph
1015.6mb 68f 69f
10:48 2
mph
1015.6mb 68f -
10:42 1 2 mph 1015.6mb 68f -
10:36 2 3 mph 1015.5mb 68f -
10:30 3
mph
1015.5mb 68f 68f
10:24 1
mph
1015.4mb 69f 69f
10:18  -  1 mph 1015.5mb 69f 69f
10:12  -  mph 1015.4mb 70f 69f
10:06  -  1 mph 1015.4mb 70f 69f
10:00  -  1 mph 1015.3mb 70f 69f
9:54 1
mph
1015.4mb 70f 69f
9:48 1 2 mph 1015.4mb 70f 69f
9:42 2
mph
1015.3mb 70f 69f
9:36  -  1 mph 1015.3mb 70f 69f
9:30  -  3 mph 1015.2mb 70f 69f
9:24 2 3 mph 1015.2mb 70f 69f
9:18 2 3 mph 1015.2mb 70f 69f
9:12 3 5 mph 1015.1mb 70f 69f
9:06 3
mph
1015.1mb 70f 69f
9:00 3 5 mph 1015.1mb 70f 69f
8:54 3 5 mph 1015.1mb 70f 69f
8:48 3 5 mph 1015mb 70f 69f
8:42 3 5 mph 1015.1mb 70f 69f
8:36 5
mph
1015.1mb 69f 69f
8:30 3
mph
1015mb 69f 69f
8:24 2 3 mph 1014.9mb 69f 69f
8:18 3 5 mph 1014.8mb 69f 69f
8:12 5 6 mph 1014.7mb 69f 69f
8:06 3 5 mph 1014.6mb 69f 69f
8:00 3 5 mph 1014.5mb 69f 69f
7:54 3 5 mph 1014.5mb 69f 69f
7:48 3 6 mph 1014.4mb 69f 69f
7:42 3 5 mph 1014.4mb 69f 69f
7:36 3 5 mph 1014.3mb 69f 69f
7:30 3 5 mph 1014.3mb 69f 69f
7:24 3 5 mph 1014.3mb 69f 69f
7:18 3
mph
1014.2mb 69f 69f
7:12 3 5 mph 1014.2mb 69f 69f
7:06 3 5 mph 1014.1mb 69f 69f
7:00 5 6 mph 1014.1mb 69f 69f
6:54 6 7 mph 1014mb 69f 69f
6:48 6 7 mph 1014mb 69f 69f
6:42 5
mph
1014mb 69f 69f
6:36 5
mph
1014mb 69f 69f
6:30 5 6 mph 1014mb 69f 69f
6:24 5 6 mph 1014mb 69f 69f
6:18 5 6 mph 1014.1mb 69f 69f
6:12 5 6 mph 1014mb 69f 69f
6:06 6 7 mph 1014.1mb 70f 69f
6:00  -  mph 1014.1mb 70f 69f
5:54  -  mph 1014.1mb 70f 69f
5:48 7
mph
1014mb 70f 69f
5:42 6 9 mph 1014mb 70f 69f
5:36 7 8 mph 1014mb 70f 70f
5:30 6 7 mph 1014mb 70f 69f
5:24 6 7 mph 1014.1mb 70f 69f
5:18  -  mph 1014.1mb 70f 70f
5:12  -  mph 1014.1mb 70f 69f
5:06  -  mph 1014.1mb 69f 69f
5:00 6 8 mph 1014.2mb 68f 70f
4:54 6 7 mph 1014.1mb 65f 69f
4:48 7
mph
- 64f 69f
4:42 6 8 mph - 64f 70f
4:36 6 8 mph - 63f 69f
4:30 6 7 mph 1014.2mb 63f 70f
4:24 7 8 mph 1014.2mb 64f 69f
4:18  -  mph 1014.2mb 64f 69f
4:12  -  mph 1014.3mb 65f 69f
4:06  -  mph 1014.2mb 68f 69f
4:00 6 9 mph 1014.3mb 69f 70f
3:54 7 8 mph 1014.4mb 69f 70f
3:48  -  mph - 69f -
3:42  -  mph - 69f -
3:36  -  mph - 69f -
3:30 7 8 mph 1014.7mb 70f 70f
3:24 7 9 mph 1014.7mb 70f 70f
3:18  -  mph 1014.8mb 70f 70f
3:12  -  mph 1014.8mb 70f 70f
3:06  -  mph 1014.9mb 70f 70f
3:00  -  mph 1014.9mb 70f 70f
2:54  -  mph 1014.9mb 70f 70f
2:48  -  mph - 70f 70f
2:42  -  mph - 70f 70f
2:36  -  mph - 70f 70f
2:30 7 8 mph 1015.2mb 70f 70f
2:24 7 8 mph 1015.3mb 70f 70f
2:18 7 9 mph 1015.4mb 70f 70f
2:12 6 8 mph 1015.4mb 70f 71f
2:06 6 9 mph 1015.5mb 70f 71f
2:00 7 9 mph 1015.5mb 70f 70f
1:54 7 8 mph 1015.5mb 70f 70f
1:48 6 8 mph 1015.6mb 70f 70f
1:42 5 7 mph 1015.6mb 70f 71f
1:36 6 8 mph 1015.6mb 69f 70f
1:30 6 8 mph 1015.7mb 69f 70f
1:24 7 8 mph 1015.8mb 69f 70f
1:18 6 8 mph 1015.8mb 69f 70f
1:12 7 9 mph 1015.8mb 69f 70f
1:06 7 9 mph 1015.8mb 69f 70f
1:00 7 9 mph 1015.8mb 69f 70f
12:54 7 9 mph 1015.9mb 69f 70f
12:48 7 9 mph 1016mb 69f 70f
12:42 9 11 mph 1016mb 70f 70f
12:36 7 9 mph 1016mb 69f 70f
12:30 6 8 mph 1016mb 69f 70f
12:24 6 8 mph 1016mb 69f 70f
12:18 7 8 mph 1016mb 69f 69f
12:12 6 8 mph 1016.1mb 69f 70f
12:06 7 8 mph 1016.1mb 69f 70f
12:00 7 8 mph 1016.2mb 68f 69f
11:54 7 9 mph 1016.2mb 68f 69f
11:48 7 8 mph 1016.2mb 68f 69f
11:42 8 9 mph 1016.2mb 68f 69f
11:36 8 10 mph 1016.2mb 68f 69f
11:30 7 9 mph 1016.2mb 68f 69f
11:24 7 8 mph 1016.3mb 68f 69f
11:18 8
mph
1016.3mb 68f 69f
11:12 7 9 mph 1016.3mb 68f 69f
11:06 8 9 mph 1016.4mb 68f 69f
11:00 7 8 mph 1016.5mb 68f 69f
10:54 8 9 mph 1016.5mb 68f 68f
10:48 7 9 mph 1016.6mb 68f 68f
10:42 7 8 mph 1016.6mb 68f 68f
10:36 7 8 mph 1016.6mb 68f 68f
10:30 8 9 mph 1016.6mb 69f 68f
10:24 8 9 mph 1016.6mb 69f 68f
10:18 7 9 mph 1016.6mb 68f 68f
10:12 8
mph
1016.6mb 68f 68f
10:06 8
mph
1016.7mb 68f 68f
10:00 7 9 mph 1016.7mb 69f 68f
9:54 8 10 mph 1016.7mb 69f 68f
9:48 8 10 mph 1016.7mb 69f 68f
9:42 8 10 mph 1016.7mb 69f 68f
9:36 6 9 mph 1016.7mb 69f 68f
9:30 9 10 mph 1016.7mb 69f 68f
9:24 7 8 mph 1016.6mb 69f 68f
9:18 7 8 mph 1016.6mb 69f 68f
9:12 6 7 mph 1016.6mb 69f 68f
9:06 7
mph
1016.6mb 69f 68f
9:00 6 9 mph 1016.6mb 69f 68f
8:54 9 10 mph 1016.5mb 69f 68f
8:48 7 9 mph 1016.5mb 69f 68f
8:42 7 8 mph 1016.5mb 69f 68f
8:36 7 9 mph 1016.5mb 69f 68f
8:30 6 8 mph 1016.5mb 69f 68f
8:24 7 8 mph 1016.4mb 69f 68f
8:18 7 8 mph 1016.4mb 69f 68f
8:12 8 9 mph 1016.3mb 69f 68f
8:06 7 8 mph 1016.2mb 69f 68f
8:00 7 9 mph 1016.1mb 69f 68f
7:54 9
mph
1016.1mb 69f 68f
7:48 8
mph
1016mb 68f 68f
7:42 7 8 mph 1016.1mb 68f 68f
7:36 8
mph
1016mb 68f 68f
7:30 7 8 mph 1016mb 67f 68f
7:24 7 8 mph 1015.9mb 67f 68f
7:18 7 8 mph 1015.8mb 67f 68f
7:12 8
mph
1015.7mb 66f 68f
7:06 6 7 mph 1015.7mb 65f 68f
7:00 7
mph
1015.7mb 65f 68f
6:54 6 8 mph 1015.8mb 66f 68f
6:48 6 7 mph 1015.8mb 67f 68f
6:42 6 7 mph 1015.7mb 68f 68f
6:36 6 7 mph 1015.7mb 69f 68f
6:30 6
mph
1015.7mb 69f 68f
6:24 6 8 mph 1015.7mb 69f 68f
6:18 6 8 mph 1015.6mb 69f 67f
6:12 6 8 mph 1015.6mb 69f 68f
6:06 10 13 mph 1015.5mb 69f 67f
6:00 7 8 mph 1015.4mb 70f 68f
5:54 7 8 mph 1015.3mb 70f 68f
5:48 8
mph
1015.2mb 70f 68f
5:42 8 9 mph 1015.3mb 70f 68f
5:36 7 8 mph 1015.2mb 70f 68f
5:30 7 9 mph 1015.2mb 70f 68f
5:24 8 9 mph 1015.2mb 70f 68f
5:18 8
mph
1015.2mb 70f 68f
5:12 7 8 mph 1015.2mb 70f 68f
5:06 8 9 mph 1015.2mb 69f 68f
5:00 7 9 mph 1015.2mb 67f -
4:54 7 8 mph 1015.2mb 66f -
4:48 5 6 mph 1015.2mb 65f 68f
4:42 6
mph
1015.2mb 65f 68f
4:36 6 7 mph 1015.2mb 65f 68f
4:30 6 7 mph 1015.2mb 66f 68f
4:24 6 7 mph 1015.2mb 66f 68f
4:18 5 6 mph 1015.1mb 66f 68f
4:12 5 6 mph 1015.1mb 67f 68f
4:06 6 8 mph 1015.1mb 67f 68f
4:00 5 6 mph 1015.1mb 68f 68f
3:54 6
mph
1015.2mb 69f 68f
3:48 3
mph
1015.1mb 69f 68f
3:42 3
mph
1015.2mb 70f 68f
3:36 2 6 mph 1015.3mb 69f 68f
3:30 5 6 mph 1015.3mb 69f 68f
3:24 1 5 mph 1015.4mb 69f 68f
3:18 3 8 mph 1015.4mb 69f 68f
3:12 6 7 mph 1015.3mb 69f 68f
3:06 7 8 mph 1015.3mb 69f 68f
3:00 6 8 mph 1015.3mb 69f 68f
2:54 7 8 mph 1015.4mb 69f 68f
2:48 3 5 mph 1015.4mb 69f 68f
2:42 3 5 mph 1015.4mb 69f 68f
2:36 5 7 mph 1015.4mb 70f 68f
2:30 5 7 mph 1015.4mb 70f 68f
2:24 7
mph
1015.3mb 70f 68f
2:18 3 5 mph 1015.4mb 70f 68f
2:12 5 6 mph 1015.4mb 70f 68f
2:06 3 5 mph 1015.4mb 70f 68f
2:00 5 6 mph 1015.4mb 70f 68f
1:54 3 5 mph 1015.4mb 70f 68f
1:48 5 10 mph 1015.4mb 70f 68f
1:42 9 10 mph 1015.3mb 70f 68f
1:36 7 8 mph 1015.4mb 70f 68f
1:30 7 8 mph 1015.4mb 70f 68f
1:24 6 7 mph 1015.5mb 70f 68f
1:18 6 7 mph 1015.6mb 70f 68f
1:12 5 6 mph 1015.6mb 70f 68f
1:06 5 6 mph 1015.6mb 70f 68f
1:00 5 6 mph 1015.7mb 70f 68f
12:54 5 6 mph 1015.7mb 70f 68f
12:48 6
mph
1015.7mb 70f 68f
12:42 6
mph
1015.7mb 70f 68f
12:36 6 7 mph 1015.6mb 70f 68f
12:30 5 6 mph 1015.6mb 70f 68f
12:24 6 7 mph 1015.5mb 70f 68f
12:18 5 6 mph 1015.6mb 69f 68f
12:12 5 6 mph 1015.6mb 68f 68f
12:06 6 7 mph 1015.6mb 67f 68f
12:00 6 7 mph 1015.6mb 66f 68f
sáb 08/27 11:54 6 7 mph 1015.6mb 65f 68f
11:48 6 7 mph 1015.6mb 65f 69f
11:42 3 5 mph 1015.6mb 67f 68f
11:36 3 5 mph 1015.6mb 67f 69f
11:30 3 5 mph 1015.6mb 68f 68f
11:24 5 6 mph 1015.6mb 69f 68f
11:18 5 7 mph 1015.6mb 69f 68f
11:12 5 6 mph 1015.5mb 69f 68f
11:06 5 7 mph 1015.5mb 69f 68f
11:00 6 7 mph 1015.5mb 69f 68f
10:54 7 8 mph 1015.5mb 69f 68f
10:48 5 6 mph 1015.6mb - -
10:42 2 5 mph 1015.5mb - -
10:36 3 6 mph 1015.5mb - -
10:30 5 6 mph 1015.4mb 68f 68f
10:24 3 7 mph 1015.4mb 69f 68f
10:18 5 6 mph 1015.4mb 68f 68f
10:12 6 7 mph 1015.5mb 68f 68f
10:06 6 8 mph 1015.4mb 69f 68f
10:00 6 7 mph 1015.5mb 69f 68f
9:54 6 8 mph 1015.5mb 69f 68f
9:48 6 8 mph 1015.5mb 69f 68f
9:42 5 7 mph 1015.5mb 70f 68f
9:36 6 8 mph 1015.3mb 70f 68f
9:30 6 7 mph 1015.3mb 70f 68f
9:24 6 7 mph 1015.1mb 70f 68f
9:18 6 8 mph 1015.2mb 70f 68f
9:12 7 8 mph 1015.1mb 71f 68f
9:06 6 8 mph 1015mb 71f 68f
9:00 7 8 mph 1015mb 71f 68f
8:54 7 8 mph 1015mb 71f 68f
8:48 7 8 mph 1015mb 71f 68f
8:42 7 9 mph 1015mb 71f 68f
8:36 7 9 mph 1014.9mb 71f 68f
8:30 9
mph
1014.7mb 71f 68f
8:24 8 9 mph 1014.7mb 71f 68f
8:18 7 9 mph 1014.6mb 70f 68f
8:12 9
mph
1014.5mb 71f 68f
8:06 8 9 mph 1014.5mb 71f 68f
8:00 8 9 mph 1014.4mb 71f 68f
7:54 6 8 mph 1014.5mb 70f 68f
7:48 7 8 mph 1014.4mb 70f 68f
7:42 7 8 mph 1014.3mb 69f 68f
7:36 6 7 mph 1014.4mb 68f 68f
7:30 7 8 mph 1014.3mb 68f 68f
7:24 6 7 mph 1014.3mb 67f 68f
7:18  -  mph 1014.3mb 68f 68f
7:12  -  mph 1014.2mb 67f 68f
7:06  -  mph 1014.2mb 67f 68f
7:00 6 7 mph 1014.1mb 69f 68f
6:54 8 9 mph 1014mb 69f 68f
6:48 6 7 mph 1014mb 70f 68f
6:42 6 8 mph 1014mb 69f 68f
6:36 6 8 mph 1014mb 69f 68f
6:30  -  mph 1014mb 69f 68f
6:24  -  mph 1014mb 68f 68f
6:18 6 8 mph 1014mb 68f 68f
6:12 7 9 mph 1014.1mb 68f 68f
6:06 8 10 mph 1014.1mb 69f 68f
6:00  -  mph 1014.1mb 69f 68f
5:54  -  mph 1014.1mb 70f 68f
5:48 8 11 mph 1014.1mb 71f 68f
5:42 8 10 mph 1014.1mb 71f 69f
5:36 9 11 mph 1014.1mb 71f 69f
5:30 8 11 mph 1014.1mb 71f 68f
5:24 10 11 mph 1014.1mb 71f 68f
5:18 9 11 mph 1014.2mb 71f 69f
5:12 9 10 mph 1014.2mb 71f 69f
5:06 9 10 mph 1014.2mb 71f 69f
5:00 10 11 mph 1014.2mb 71f 69f
4:54 11 13 mph 1014.2mb 71f 69f
4:48 10 11 mph 1014.1mb 71f -
4:42 8 11 mph 1014.1mb 71f -
4:36 9 11 mph 1014.1mb 71f -
4:30  -  mph 1014.2mb 71f 69f
4:24  -  mph 1014.2mb 71f 69f
4:18 9 11 mph 1014.2mb 71f 69f
4:12 9 11 mph 1014.3mb 71f 69f
4:06 9 11 mph 1014.2mb 71f 70f
4:00 9 11 mph 1014.3mb 71f 70f
3:54 8 10 mph 1014.3mb 71f 70f
3:48 7 11 mph - - -
3:42 9 11 mph - - -
3:36 8 13 mph - - -
3:30 9 11 mph 1014.5mb 71f 70f
3:24 9 11 mph 1014.5mb 71f 70f
3:18 9 13 mph 1014.5mb 71f 70f
3:12 10 13 mph 1014.5mb 71f 70f
3:06 10 13 mph 1014.5mb 71f 70f
3:00 8 11 mph 1014.6mb 71f 70f
2:54 9 11 mph 1014.6mb 71f 70f
2:48  -  mph - 70f 70f
2:42  -  mph - 70f 70f
2:36  -  mph - 70f 70f
2:30 8 11 mph 1014.8mb 70f 70f
2:24 9 13 mph 1014.8mb 69f 70f
2:18 10 11 mph 1014.9mb 69f 69f
2:12 9 11 mph 1015mb 68f 70f
2:06 9 10 mph 1015mb 68f 70f
2:00 6 10 mph 1015mb 68f 70f
1:54 9 10 mph 1015.1mb 68f 69f
1:48 9 11 mph 1015.2mb 68f 69f
1:42 9 11 mph 1015.2mb 68f 69f
1:36 9 13 mph 1015.3mb 67f 69f
1:30 8 10 mph 1015.3mb 67f 69f
1:24 8 10 mph 1015.3mb 66f 69f
1:18 8 10 mph 1015.3mb 66f 69f
1:12 8 10 mph 1015.4mb 67f 69f
1:06 8 9 mph 1015.4mb 68f 69f
1:00 7 10 mph 1015.4mb 69f 69f
12:54 8 10 mph 1015.5mb 68f 69f
12:48 8 9 mph 1015.6mb 67f 69f
12:42 7 9 mph 1015.6mb 67f 69f
12:36 7 9 mph 1015.6mb 67f 69f
12:30 7 8 mph 1015.7mb 66f 69f
12:24 5 7 mph 1015.7mb 65f 69f
12:18 6 8 mph 1015.7mb 65f 69f
12:12 3 6 mph 1015.8mb 65f 69f
12:06 3 6 mph 1015.8mb 64f 69f
12:00 3 6 mph 1015.9mb 64f 69f
11:54 5 6 mph 1016mb 64f 69f
11:48 5 6 mph 1016.1mb 64f 69f
11:42 3 6 mph 1016.1mb 64f 69f
11:36 6
mph
1016.1mb 64f 69f
11:30 3 6 mph 1016.2mb 64f 69f
11:24 3 6 mph 1016.2mb 64f 68f
11:18 6
mph
1016.1mb 64f 68f
11:12 5 6 mph 1016.2mb 64f 68f
11:06 5 6 mph 1016.2mb 64f 68f
11:00 5 6 mph 1016.3mb 64f 68f
10:54 5
mph
1016.3mb 65f 68f
10:48 3 5 mph 1016.3mb 65f 68f
10:42 2 3 mph 1016.3mb 65f 69f
10:36 1
mph
1016.3mb 65f 68f
10:30 1 3 mph 1016.3mb 65f 68f
10:24 2 3 mph 1016.3mb 65f 68f
10:18 2 5 mph 1016.2mb 65f 68f
10:12 2 3 mph 1016.2mb 65f 68f
10:06  -  2 mph 1016.2mb 65f 69f
10:00  -  2 mph 1016.1mb 65f 69f
9:54 1 2 mph 1016.1mb 66f 68f
9:48 1 2 mph 1016mb 66f 68f
9:42 1 2 mph 1016mb 66f 68f
9:36 1 2 mph 1016mb 67f 68f
9:30 2 3 mph 1016mb 67f 67f
9:24 2 3 mph 1016mb 68f 67f
9:18 2 3 mph 1016mb 68f 67f
9:12 2 3 mph 1016mb 68f 67f
9:06 2 3 mph 1016mb 69f 67f
9:00 1 2 mph 1016mb 69f 67f
8:54 1 3 mph 1016mb 69f 67f
8:48 1 3 mph 1016.1mb 69f 67f
8:42 2 5 mph 1016.1mb 69f 67f
8:36 3 5 mph 1016mb 69f 67f
8:30 3 5 mph 1015.9mb 69f 67f
8:24 2 3 mph 1015.8mb 69f 67f
8:18 2 3 mph 1015.7mb 69f 67f
8:12 2 3 mph 1015.7mb 69f 67f
8:06 1 3 mph 1015.6mb 69f 67f
8:00 3
mph
1015.6mb 69f 67f
7:54 2 3 mph 1015.6mb 69f 67f
7:48 1 5 mph 1015.6mb 70f 67f
7:42 3
mph
1015.5mb 70f 67f
7:36 2 5 mph 1015.5mb 70f 67f
7:30 5 6 mph 1015.4mb 70f 66f
7:24 3 5 mph 1015.4mb 70f 66f
7:18 2 5 mph 1015.2mb 70f 66f
7:12 2 3 mph 1015.1mb 70f 66f
7:06 2 6 mph 1015.1mb 70f 66f
7:00  -  2 mph 1015mb 70f 66f
6:54  -  3 mph 1015mb 69f 66f
6:48 2 5 mph 1014.9mb 69f 66f
6:42 3 5 mph 1014.8mb 70f 66f
6:36 3
mph
1014.8mb 70f 66f
6:30 2 3 mph 1014.8mb 69f 66f
6:24 3 6 mph 1014.7mb 69f 66f